Time;durP1;ratioP1;P1;durP2;ratioP2;P2;SDS_P1;SDS_P2;PMS_P1;PMS_P2;Temp;Humidity;BMP_temperature;BMP_pressure;BME280_temperature;BME280_humidity;BME280_pressure;Samples;Min_cycle;Max_cycle;Signal;HPM_P1;HPM_P2
2022/02/08 00:01:12;;;;;;;0.47;0.32;;;1.00;99.90;;;;;;5053335;28;20037;-81
2022/02/08 00:03:38;;;;;;;1.90;0.40;;;1.00;99.90;;;;;;5051794;28;20476;-82
2022/02/08 00:08:41;;;;;;;3.00;0.70;;;1.00;99.90;;;;;;5053326;28;20040;-78
2022/02/08 00:11:07;;;;;;;1.13;0.50;;;1.00;99.90;;;;;;5051645;28;20025;-79
2022/02/08 00:13:33;;;;;;;0.40;0.35;;;1.00;99.90;;;;;;5052963;28;20482;-82
2022/02/08 00:15:59;;;;;;;0.30;0.30;;;1.00;99.90;;;;;;5052145;28;20041;-79
2022/02/08 00:18:24;;;;;;;3.15;0.60;;;1.10;99.90;;;;;;5034768;28;20033;-81
2022/02/08 00:20:50;;;;;;;0.75;0.60;;;1.20;99.90;;;;;;5052975;28;20020;-81
2022/02/08 00:23:16;;;;;;;1.13;0.57;;;1.00;99.90;;;;;;5054040;28;20017;-82
2022/02/08 00:25:41;;;;;;;2.22;0.65;;;1.00;99.90;;;;;;5053755;28;20392;-79
2022/02/08 00:28:07;;;;;;;0.65;0.52;;;1.00;99.90;;;;;;5052777;28;20031;-78
2022/02/08 00:30:33;;;;;;;2.25;1.02;;;1.00;99.90;;;;;;5052449;28;20025;-80
2022/02/08 00:32:58;;;;;;;1.15;0.60;;;1.00;99.90;;;;;;5051674;28;20009;-78
2022/02/08 00:35:24;;;;;;;2.70;1.20;;;1.00;99.90;;;;;;5034737;28;20090;-79
2022/02/08 00:37:50;;;;;;;1.67;0.70;;;1.10;99.90;;;;;;5053002;28;20053;-79
2022/02/08 00:40:17;;;;;;;1.65;0.85;;;1.10;99.90;;;;;;5035076;28;20036;-80
2022/02/08 00:42:43;;;;;;;1.95;0.98;;;1.00;99.90;;;;;;5053028;28;20021;-79
2022/02/08 00:45:23;;;;;;;4.75;1.23;;;1.00;99.90;;;;;;5034903;28;20083;-78
2022/02/08 00:48:06;;;;;;;2.38;1.17;;;1.00;99.90;;;;;;5034731;28;20025;-79
2022/02/08 00:50:32;;;;;;;2.03;1.40;;;0.90;99.90;;;;;;5052907;28;20017;-80
2022/02/08 00:52:57;;;;;;;6.45;1.70;;;0.80;99.90;;;;;;5051327;28;20834;-79
2022/02/08 00:55:23;;;;;;;4.78;2.13;;;0.90;99.90;;;;;;5035049;28;20056;-79
2022/02/08 00:57:49;;;;;;;4.07;2.00;;;0.90;99.90;;;;;;5034869;28;20431;-79
2022/02/08 01:00:15;;;;;;;3.38;1.67;;;0.80;99.90;;;;;;5052598;28;20048;-80
2022/02/08 01:02:41;;;;;;;2.72;1.75;;;0.80;99.90;;;;;;5052245;28;20017;-79
2022/02/08 01:05:10;;;;;;;4.53;2.00;;;0.90;99.90;;;;;;5034674;28;20495;-79
2022/02/08 01:07:35;;;;;;;3.08;1.63;;;0.80;99.90;;;;;;5052174;28;20108;-79
2022/02/08 01:10:03;;;;;;;2.17;1.33;;;0.80;99.90;;;;;;5034616;28;20111;-80
2022/02/08 01:12:31;;;;;;;3.42;1.35;;;0.90;99.90;;;;;;5051430;28;20017;-81
2022/02/08 01:14:58;;;;;;;2.75;1.80;;;0.90;99.90;;;;;;5052125;28;20021;-80
2022/02/08 01:17:25;;;;;;;4.03;1.73;;;0.90;99.90;;;;;;5034622;28;20083;-80
2022/02/08 01:19:58;;;;;;;1.88;1.38;;;0.80;99.90;;;;;;5052516;28;20009;-79
2022/02/08 01:22:24;;;;;;;2.63;1.35;;;0.90;99.90;;;;;;5052458;28;20409;-80
2022/02/08 01:24:51;;;;;;;2.35;1.55;;;0.90;99.90;;;;;;5037141;28;20084;-80
2022/02/08 01:27:20;;;;;;;1.20;1.10;;;0.90;99.90;;;;;;5056254;28;20020;-79
2022/02/08 01:43:53;;;;;;;1.55;1.10;;;0.80;99.90;;;;;;4975477;28;20030;-79
2022/02/08 01:49:13;;;;;;;1.48;1.08;;;0.60;99.90;;;;;;5055660;28;20111;-79
2022/02/08 01:51:39;;;;;;;2.33;1.30;;;0.60;99.90;;;;;;5037960;28;20436;-79
2022/02/08 01:54:05;;;;;;;1.25;1.05;;;0.50;99.90;;;;;;5055591;28;20032;-79
2022/02/08 01:56:31;;;;;;;2.58;1.40;;;0.50;99.90;;;;;;5054184;28;20037;-79
2022/02/08 01:58:57;;;;;;;2.53;1.20;;;0.40;99.90;;;;;;5055257;28;20025;-78
2022/02/08 02:01:23;;;;;;;1.48;0.98;;;0.40;99.90;;;;;;5055424;28;20040;-80
2022/02/08 02:03:48;;;;;;;4.45;1.20;;;0.30;99.90;;;;;;5037810;28;20021;-79
2022/02/08 02:06:14;;;;;;;2.42;1.30;;;0.40;99.90;;;;;;5054440;28;20139;-79
2022/02/08 02:08:40;;;;;;;1.67;0.85;;;0.30;99.90;;;;;;5055184;28;20372;-79
2022/02/08 02:11:06;;;;;;;5.20;1.38;;;0.30;99.90;;;;;;5053944;28;20025;-80
2022/02/08 02:13:47;;;;;;;1.90;1.27;;;0.30;99.90;;;;;;5055354;28;20095;-79
2022/02/08 02:16:18;;;;;;;3.30;1.20;;;0.20;99.90;;;;;;5054468;28;20040;-79
2022/02/08 02:18:43;;;;;;;0.95;0.80;;;0.20;99.90;;;;;;5037637;28;20024;-78
2022/02/08 02:21:09;;;;;;;2.10;0.77;;;0.30;99.90;;;;;;5037287;28;20029;-80
2022/02/08 02:23:35;;;;;;;1.35;1.00;;;0.10;99.90;;;;;;5055158;28;20025;-79
2022/02/08 02:26:01;;;;;;;2.28;1.13;;;0.10;99.90;;;;;;5037041;28;20024;-80
2022/02/08 02:28:27;;;;;;;5.18;1.13;;;0.10;99.90;;;;;;5054650;28;20465;-79
2022/02/08 02:30:54;;;;;;;2.22;1.15;;;0.10;99.90;;;;;;5037151;28;20028;-80
2022/02/08 02:33:20;;;;;;;2.15;0.95;;;0.00;99.90;;;;;;5036700;28;20494;-79
2022/02/08 02:35:47;;;;;;;3.40;1.30;;;0.00;99.90;;;;;;5036442;28;20116;-81
2022/02/08 02:38:13;;;;;;;1.95;1.15;;;0.00;99.90;;;;;;5037025;28;20133;-81
2022/02/08 02:40:44;;;;;;;1.23;1.02;;;0.00;99.90;;;;;;5054744;28;20032;-79
2022/02/08 02:43:10;;;;;;;2.15;1.05;;;-0.10;99.90;;;;;;5036689;28;20029;-79
2022/02/08 02:45:37;;;;;;;3.25;1.48;;;-0.10;99.90;;;;;;5054379;28;20379;-78
2022/02/08 02:48:03;;;;;;;2.58;1.10;;;-0.10;99.90;;;;;;5053219;28;20028;-80
2022/02/08 02:50:28;;;;;;;1.52;1.33;;;-0.20;99.90;;;;;;5036681;28;20032;-79
2022/02/08 02:52:54;;;;;;;2.22;1.30;;;-0.20;99.90;;;;;;5054624;28;20369;-80
2022/02/08 02:55:20;;;;;;;4.20;1.75;;;-0.20;99.90;;;;;;5054227;28;20476;-80
2022/02/08 02:57:50;;;;;;;1.80;1.70;;;-0.20;99.90;;;;;;5054050;28;20021;-79
2022/02/08 03:19:21;;;;;;;10.68;4.90;;;-0.30;99.90;;;;;;5053993;28;20131;-79
2022/02/08 03:21:47;;;;;;;6.68;4.03;;;-0.40;99.90;;;;;;5054068;28;20036;-79
2022/02/08 03:24:13;;;;;;;8.45;3.53;;;-0.40;99.90;;;;;;5052648;28;20175;-80
2022/02/08 03:26:38;;;;;;;4.50;2.67;;;-0.50;99.90;;;;;;5052927;28;20025;-79
2022/02/08 03:29:04;;;;;;;3.50;2.67;;;-0.50;99.90;;;;;;5035598;28;20021;-80
2022/02/08 03:31:30;;;;;;;4.85;1.92;;;-0.60;99.90;;;;;;5035981;28;20032;-80
2022/02/08 03:33:56;;;;;;;3.55;1.73;;;-0.70;99.90;;;;;;5035955;28;20025;-80
2022/02/08 03:36:21;;;;;;;6.97;3.28;;;-0.70;99.90;;;;;;5035600;28;20036;-80
2022/02/08 03:38:59;;;;;;;8.15;2.17;;;-0.70;99.90;;;;;;5035521;28;20025;-79
2022/02/08 03:41:24;;;;;;;4.18;1.65;;;-0.80;99.90;;;;;;5035646;28;20494;-78
2022/02/08 03:43:51;;;;;;;1.30;1.20;;;-0.70;99.90;;;;;;5053281;28;20081;-78
2022/02/08 03:46:21;;;;;;;2.90;1.90;;;-0.70;99.90;;;;;;5034950;28;20112;-79
2022/02/08 03:48:47;;;;;;;1.90;1.80;;;-0.70;99.90;;;;;;5053491;28;20013;-79
2022/02/08 03:51:15;;;;;;;3.70;1.63;;;-0.80;99.90;;;;;;5053957;28;20090;-79
2022/02/08 03:53:43;;;;;;;4.18;1.50;;;-0.80;99.90;;;;;;5035732;28;20424;-79
2022/02/08 03:56:15;;;;;;;3.42;1.60;;;-0.80;99.90;;;;;;5035808;28;20064;-79
2022/02/08 03:58:41;;;;;;;8.07;3.45;;;-0.90;99.90;;;;;;5053358;28;20531;-79
2022/02/08 04:04:06;;;;;;;3.40;1.42;;;-0.90;99.90;;;;;;5053594;28;20017;-80
2022/02/08 04:06:31;;;;;;;2.88;1.75;;;-0.90;99.90;;;;;;5052970;28;20044;-80
2022/02/08 04:08:59;;;;;;;2.63;1.45;;;-0.90;99.90;;;;;;5052751;28;20464;-80
2022/02/08 04:11:24;;;;;;;2.40;1.65;;;-1.00;99.90;;;;;;5051869;28;20075;-80
2022/02/08 04:14:01;;;;;;;3.20;1.80;;;-1.00;99.90;;;;;;5051954;28;20032;-79
2022/02/08 04:16:32;;;;;;;2.63;1.52;;;-1.00;99.90;;;;;;5051994;28;20455;-81
2022/02/08 04:19:15;;;;;;;2.72;1.70;;;-1.00;99.90;;;;;;5035015;28;20115;-80
2022/02/08 04:35:56;;;;;;;6.13;1.42;;;-0.80;99.90;;;;;;5053021;28;20048;-78
2022/02/08 04:38:28;;;;;;;1.90;1.40;;;-0.80;99.90;;;;;;5050916;28;20029;-80
2022/02/08 04:41:02;;;;;;;5.03;1.60;;;-0.90;99.90;;;;;;5052691;28;20067;-79
2022/02/08 04:46:09;;;;;;;2.03;1.45;;;-0.90;99.90;;;;;;5052692;28;20032;-79
2022/02/08 04:48:47;;;;;;;1.83;1.38;;;-0.90;99.90;;;;;;5034235;28;20106;-79
2022/02/08 04:51:22;;;;;;;3.03;1.50;;;-1.00;99.90;;;;;;5034867;28;20120;-81
2022/02/08 04:54:03;;;;;;;1.57;1.47;;;-0.90;99.90;;;;;;5035033;28;20091;-79
2022/02/08 05:45:10;;;;;;;3.25;2.13;;;-1.20;99.90;;;;;;5056143;28;20380;-81
2022/02/08 05:47:43;;;;;;;2.72;1.77;;;-1.30;99.90;;;;;;5056081;28;20028;-83
2022/02/08 05:50:24;;;;;;;3.05;2.22;;;-1.30;99.90;;;;;;5055808;28;20543;-80
2022/02/08 05:53:03;;;;;;;4.82;2.88;;;-1.40;99.90;;;;;;5055851;28;20013;-81
2022/02/08 05:55:30;;;;;;;3.50;2.00;;;-1.50;99.90;;;;;;5036904;28;20476;-81
2022/02/08 05:57:57;;;;;;;7.95;2.80;;;-1.50;99.90;;;;;;5037376;28;20078;-79
2022/02/08 06:00:27;;;;;;;2.85;1.70;;;-1.50;99.90;;;;;;5038427;28;20045;-81
2022/02/08 06:02:55;;;;;;;5.22;2.47;;;-1.20;99.90;;;;;;5056930;28;20032;-83
2022/02/08 06:05:21;;;;;;;5.22;2.03;;;-0.70;99.90;;;;;;5039100;28;20021;-81
2022/02/08 06:07:47;;;;;;;2.55;1.85;;;-0.80;99.90;;;;;;5056601;28;20017;-82
2022/02/08 06:10:13;;;;;;;8.88;2.53;;;-1.00;99.90;;;;;;5039860;28;20029;-83
2022/02/08 06:12:44;;;;;;;2.60;1.63;;;-1.10;99.90;;;;;;5055349;28;20113;-81
2022/02/08 06:15:12;;;;;;;4.68;2.10;;;-1.30;99.90;;;;;;5037238;28;20523;-80
2022/02/08 06:17:38;;;;;;;3.30;2.00;;;-1.50;99.90;;;;;;5055148;28;20096;-80
2022/02/08 06:20:06;;;;;;;2.03;1.80;;;-1.50;99.90;;;;;;5037059;28;20441;-80
2022/02/08 06:22:32;;;;;;;3.67;1.27;;;-1.60;99.90;;;;;;5054736;28;20410;-80
2022/02/08 06:24:58;;;;;;;3.30;1.40;;;-1.70;99.90;;;;;;5054866;28;20013;-79
2022/02/08 06:27:29;;;;;;;2.67;1.80;;;-1.70;99.90;;;;;;5037019;28;20029;-80
2022/02/08 06:29:56;;;;;;;3.88;2.10;;;-1.70;99.90;;;;;;5054598;28;20045;-80
2022/02/08 06:32:22;;;;;;;5.38;1.98;;;-1.80;99.90;;;;;;5054423;28;20028;-79
2022/02/08 06:34:48;;;;;;;1.60;1.50;;;-1.80;99.90;;;;;;5053470;28;20025;-80
2022/02/08 06:37:16;;;;;;;5.55;2.45;;;-1.80;99.90;;;;;;5053115;28;20029;-78
2022/02/08 06:39:42;;;;;;;2.70;2.35;;;-1.80;99.90;;;;;;5054722;28;20074;-80
2022/02/08 06:42:09;;;;;;;4.32;2.28;;;-1.80;99.90;;;;;;5054608;28;20462;-79
2022/02/08 06:44:35;;;;;;;3.83;3.00;;;-1.80;99.90;;;;;;5053576;28;20021;-79
2022/02/08 06:47:01;;;;;;;8.85;2.80;;;-1.70;99.90;;;;;;5053277;28;20029;-79
2022/02/08 06:49:27;;;;;;;5.13;3.03;;;-1.70;99.90;;;;;;5036772;28;20029;-80
2022/02/08 06:51:53;;;;;;;3.80;2.40;;;-1.40;99.90;;;;;;5036851;28;20036;-79
2022/02/08 06:54:18;;;;;;;8.35;3.10;;;-1.70;99.90;;;;;;5054235;28;20103;-79
2022/02/08 06:56:45;;;;;;;4.28;3.30;;;-1.70;99.90;;;;;;5036052;28;20079;-79
2022/02/08 06:59:14;;;;;;;8.00;3.13;;;-1.70;99.90;;;;;;5035794;28;20098;-79
2022/02/08 07:01:40;;;;;;;6.57;3.20;;;-1.60;99.90;;;;;;5036067;28;20040;-79
2022/02/08 07:04:13;;;;;;;6.57;3.47;;;-1.60;99.90;;;;;;5053939;28;20017;-79
2022/02/08 07:06:39;;;;;;;7.22;3.10;;;-1.40;99.90;;;;;;5036239;28;20082;-78
2022/02/08 07:09:05;;;;;;;3.92;3.25;;;-1.50;99.90;;;;;;5052568;28;20357;-79
2022/02/08 07:11:31;;;;;;;5.90;4.32;;;-1.40;99.90;;;;;;5053822;28;20048;-78
2022/02/08 07:13:58;;;;;;;5.18;4.43;;;-1.40;99.90;;;;;;5035538;28;20049;-81
2022/02/08 07:16:24;;;;;;;7.97;4.55;;;-1.40;99.90;;;;;;5035601;28;20128;-79
2022/02/08 07:18:49;;;;;;;26.42;14.68;;;-1.30;99.90;;;;;;5052206;28;20115;-80
2022/02/08 07:21:15;;;;;;;13.82;8.75;;;-1.20;99.90;;;;;;5052194;28;20029;-79
2022/02/08 07:23:41;;;;;;;6.88;2.92;;;-1.20;99.90;;;;;;5052386;28;20021;-79
2022/02/08 07:26:07;;;;;;;11.85;4.70;;;-0.60;99.90;;;;;;5035687;28;20372;-78
2022/02/08 07:28:41;;;;;;;7.95;3.72;;;-0.40;99.90;;;;;;5053504;28;20025;-80
2022/02/08 07:31:15;;;;;;;10.90;5.45;;;-0.40;99.90;;;;;;5053536;28;20024;-79
2022/02/08 07:33:47;;;;;;;7.53;4.95;;;-0.40;99.90;;;;;;5035448;28;20373;-79
2022/02/08 07:38:57;;;;;;;8.73;4.15;;;-0.40;99.90;;;;;;5053262;28;20028;-77
2022/02/08 07:41:39;;;;;;;18.65;8.50;;;-0.40;99.90;;;;;;5052006;28;20013;-78
2022/02/08 07:44:07;;;;;;;18.58;9.10;;;-0.50;99.90;;;;;;5051959;28;20082;-78
2022/02/08 07:46:33;;;;;;;7.97;4.75;;;-0.40;99.90;;;;;;5053520;28;20013;-78
2022/02/08 07:49:01;;;;;;;7.45;4.60;;;0.30;99.90;;;;;;5053605;28;20031;-79
2022/02/08 07:51:26;;;;;;;6.80;4.10;;;0.50;99.90;;;;;;5035238;28;20055;-80
2022/02/08 07:53:52;;;;;;;7.60;4.03;;;0.40;99.90;;;;;;5053179;28;20057;-80
2022/02/08 07:56:18;;;;;;;6.28;3.75;;;0.40;99.90;;;;;;5052927;28;20055;-78
2022/02/08 07:58:43;;;;;;;5.82;3.08;;;0.40;99.90;;;;;;5051285;28;20111;-78
2022/02/08 08:01:09;;;;;;;7.88;3.40;;;0.40;99.90;;;;;;5034731;28;20076;-78
2022/02/08 08:03:40;;;;;;;7.00;3.95;;;0.30;99.90;;;;;;5051758;28;20021;-79
2022/02/08 08:06:07;;;;;;;7.57;3.88;;;0.30;99.90;;;;;;5053054;28;20060;-79
2022/02/08 08:08:33;;;;;;;7.47;4.55;;;0.30;99.90;;;;;;5052934;28;20452;-79
2022/02/08 08:10:59;;;;;;;8.82;4.55;;;0.30;99.90;;;;;;5052687;28;20059;-81
2022/02/08 08:13:26;;;;;;;9.05;5.15;;;0.30;99.90;;;;;;5034929;28;20024;-78
2022/02/08 08:15:59;;;;;;;11.05;5.85;;;0.40;99.90;;;;;;5051208;28;20055;-81
2022/02/08 08:20:51;;;;;;;12.05;7.60;;;0.40;99.90;;;;;;5052014;28;20086;-79
2022/02/08 08:23:16;;;;;;;13.65;6.22;;;0.50;99.90;;;;;;5052452;28;20102;-79
2022/02/08 08:25:43;;;;;;;15.73;9.00;;;0.60;99.90;;;;;;5051342;28;20028;-79
2022/02/08 08:28:09;;;;;;;9.30;7.97;;;0.60;99.90;;;;;;5052800;28;20027;-80
2022/02/08 08:30:35;;;;;;;10.15;6.70;;;0.60;99.90;;;;;;5053019;28;20460;-84
2022/02/08 08:33:02;;;;;;;10.25;4.43;;;0.60;99.90;;;;;;5034207;28;20017;-82
2022/02/08 08:35:28;;;;;;;7.15;4.72;;;0.70;99.90;;;;;;5052500;28;20028;-80
2022/02/08 08:37:59;;;;;;;10.00;5.05;;;0.80;99.90;;;;;;5052450;28;20457;-79
2022/02/08 08:40:41;;;;;;;12.40;5.40;;;0.80;99.90;;;;;;5034459;28;20039;-80
2022/02/08 08:53:13;;;;;;;7.40;3.80;;;1.30;99.90;;;;;;5053674;28;20025;-79
2022/02/08 08:55:39;;;;;;;5.35;3.38;;;1.30;99.90;;;;;;5034417;28;20041;-78
2022/02/08 08:58:05;;;;;;;5.53;3.63;;;1.40;99.90;;;;;;5050368;28;20025;-80
2022/02/08 09:00:31;;;;;;;6.63;3.60;;;1.40;99.90;;;;;;5033995;28;20051;-79
2022/02/08 09:02:56;;;;;;;5.10;3.30;;;1.60;99.90;;;;;;5052260;28;20033;-79
2022/02/08 09:05:23;;;;;;;5.85;3.10;;;1.70;99.90;;;;;;5034230;28;20469;-79
2022/02/08 09:07:49;;;;;;;8.20;4.10;;;1.80;99.90;;;;;;5033958;28;20487;-81
2022/02/08 09:10:18;;;;;;;7.63;3.50;;;1.90;99.90;;;;;;5034336;28;20025;-79
2022/02/08 09:13:04;;;;;;;5.28;3.70;;;2.00;99.90;;;;;;5034563;28;20017;-79
2022/02/08 09:28:40;;;;;;;6.22;4.13;;;2.60;99.90;;;;;;5063121;28;20032;-84
2022/02/08 09:31:09;;;;;;;4.25;2.88;;;2.70;99.90;;;;;;5037386;28;20020;-81
2022/02/08 09:33:35;;;;;;;8.18;3.85;;;2.80;99.90;;;;;;5035057;28;20025;-78
2022/02/08 09:36:00;;;;;;;6.65;3.53;;;3.00;99.90;;;;;;5035981;28;20044;-80
2022/02/08 09:38:30;;;;;;;7.80;3.25;;;3.10;99.90;;;;;;5036945;28;20021;-83
2022/02/08 09:40:59;;;;;;;6.35;3.53;;;3.20;99.90;;;;;;5037848;28;20114;-84
2022/02/08 09:43:25;;;;;;;6.18;2.60;;;3.30;99.90;;;;;;5038431;28;20028;-85
2022/02/08 09:45:51;;;;;;;19.65;7.22;;;3.40;99.90;;;;;;5040754;28;20029;-84
2022/02/08 09:48:24;;;;;;;86.45;37.28;;;3.60;99.90;;;;;;5040146;28;20441;-82
2022/02/08 09:50:51;;;;;;;30.98;15.40;;;3.70;99.90;;;;;;5040282;28;20091;-83
2022/02/08 09:53:23;;;;;;;60.08;29.80;;;3.80;99.90;;;;;;5039578;28;20464;-79
2022/02/08 09:55:49;;;;;;;13.23;7.38;;;3.90;99.90;;;;;;5040140;28;20124;-83
2022/02/08 09:58:15;;;;;;;9.00;6.22;;;4.00;99.90;;;;;;5040607;28;20067;-82
2022/02/08 10:00:41;;;;;;;5.45;2.80;;;4.20;99.90;;;;;;5040575;28;20496;-85
2022/02/08 10:03:16;;;;;;;1.88;1.50;;;4.30;99.90;;;;;;5041078;28;20528;-84
2022/02/08 10:05:47;;;;;;;5.05;2.97;;;4.40;99.90;;;;;;5040227;28;20472;-82
2022/02/08 10:08:14;;;;;;;3.53;1.75;;;4.50;99.90;;;;;;5038648;28;20032;-79
2022/02/08 10:10:40;;;;;;;6.20;1.65;;;4.60;99.90;;;;;;5038558;28;20021;-82
2022/02/08 10:13:18;;;;;;;1.90;1.27;;;4.70;99.90;;;;;;5038556;28;20155;-82
2022/02/08 10:24:00;;;;;;;6.28;1.77;;;5.00;99.90;;;;;;5054995;28;20020;-79
2022/02/08 10:26:39;;;;;;;1.63;1.30;;;5.10;99.90;;;;;;5055342;28;20083;-82
2022/02/08 10:37:44;;;;;;;4.18;1.58;;;5.40;96.70;;;;;;5056362;28;20499;-81
2022/02/08 10:40:11;;;;;;;2.47;1.90;;;5.50;96.30;;;;;;5056103;28;20025;-83
2022/02/08 10:42:40;;;;;;;2.95;1.67;;;5.60;94.70;;;;;;5037885;28;20028;-83
2022/02/08 10:45:20;;;;;;;2.28;1.75;;;5.60;95.50;;;;;;5038461;28;20024;-82
2022/02/08 10:47:52;;;;;;;4.85;1.35;;;5.80;92.70;;;;;;5038113;28;20106;-83
2022/02/08 10:50:18;;;;;;;3.60;1.40;;;5.80;90.40;;;;;;5038089;28;20024;-83
2022/02/08 10:52:45;;;;;;;2.65;1.33;;;5.90;90.10;;;;;;5037805;28;20024;-79
2022/02/08 10:55:27;;;;;;;2.67;1.55;;;6.00;88.20;;;;;;5037926;28;20140;-82
2022/02/08 10:58:15;;;;;;;5.50;0.70;;;6.10;88.60;;;;;;5038674;28;20063;-81
2022/02/08 11:00:48;;;;;;;0.95;0.68;;;6.20;86.40;;;;;;5041527;28;20128;-82
2022/02/08 11:03:27;;;;;;;1.55;1.13;;;6.40;86.30;;;;;;5042245;28;20036;-82
2022/02/08 11:06:36;;;;;;;2.60;0.90;;;6.50;83.30;;;;;;5038286;28;20055;-82
2022/02/08 11:20:22;;;;;;;2.78;1.92;;;7.30;90.50;;;;;;5054100;28;20476;-78
2022/02/08 11:27:52;;;;;;;2.58;1.80;;;7.50;81.80;;;;;;5053767;28;20021;-79
2022/02/08 11:30:43;;;;;;;6.50;1.42;;;7.50;83.50;;;;;;5053760;28;20488;-78
2022/02/08 11:39:14;;;;;;;4.75;2.03;;;7.80;81.80;;;;;;5053226;28;20031;-80
2022/02/08 11:48:05;;;;;;;4.68;2.63;;;9.10;90.40;;;;;;5053815;28;20043;-79
2022/02/08 11:56:22;;;;;;;2.70;1.00;;;8.10;76.80;;;;;;5053204;28;20037;-79
2022/02/08 12:01:33;;;;;;;3.55;0.70;;;8.00;74.90;;;;;;5053064;28;20393;-79
2022/02/08 12:07:03;;;;;;;3.10;1.38;;;7.90;76.40;;;;;;5052853;28;20020;-79
2022/02/08 12:10:17;;;;;;;4.50;2.60;;;8.20;81.30;;;;;;5035315;28;20024;-79
2022/02/08 12:35:33;;;;;;;2.15;0.43;;;9.10;70.10;;;;;;5052935;28;20043;-78
2022/02/08 12:50:08;;;;;;;2.75;0.60;;;9.10;66.10;;;;;;5053279;28;20508;-80
2022/02/08 13:00:25;;;;;;;2.53;0.60;;;9.30;65.90;;;;;;5052543;28;20056;-82
2022/02/08 13:06:31;;;;;;;1.40;0.70;;;9.40;66.60;;;;;;5052728;28;20032;-81
2022/02/08 14:08:40;;;;;;;1.83;0.40;;;10.40;58.40;;;;;;5055786;28;20035;-79
2022/02/08 14:13:49;;;;;;;0.73;0.22;;;10.40;58.20;;;;;;5055801;28;20484;-80
2022/02/08 14:18:51;;;;;;;4.75;1.98;;;10.30;59.40;;;;;;5055780;28;20063;-81
2022/02/08 14:21:34;;;;;;;4.35;1.67;;;10.30;60.10;;;;;;5054318;28;20029;-81
2022/02/08 14:32:02;;;;;;;5.57;0.68;;;10.10;73.70;;;;;;5055502;28;20036;-80
2022/02/08 14:48:53;;;;;;;4.28;2.30;;;10.10;61.50;;;;;;5055444;28;20048;-82
2022/02/08 15:08:26;;;;;;;3.78;1.35;;;9.00;66.80;;;;;;5055538;28;20095;-82
2022/02/08 15:10:19;;;;;;;2.67;2.00;;;8.90;69.10;;;;;;5037519;28;20480;-79
2022/02/08 15:12:52;;;;;;;7.18;1.02;;;8.80;70.10;;;;;;5053107;28;20108;-78
2022/02/08 15:15:28;;;;;;;1.38;1.02;;;8.80;67.30;;;;;;5035834;28;20040;-79
2022/02/08 15:17:54;;;;;;;1.63;0.70;;;8.90;65.40;;;;;;5035714;28;20021;-79
2022/02/08 15:20:22;;;;;;;0.57;0.45;;;8.90;68.10;;;;;;5035473;28;20025;-84
2022/02/08 15:22:48;;;;;;;5.65;2.80;;;8.80;73.30;;;;;;5053255;28;20017;-79
2022/02/08 15:25:14;;;;;;;3.63;1.25;;;8.60;74.00;;;;;;5052805;28;20033;-81
2022/02/08 15:27:41;;;;;;;1.95;0.50;;;8.70;92.20;;;;;;5036704;28;20028;-84
2022/02/08 15:30:09;;;;;;;1.42;0.50;;;8.70;89.30;;;;;;5038400;28;20021;-79
2022/02/08 15:32:36;;;;;;;2.15;1.10;;;8.60;78.60;;;;;;5036985;28;20087;-81
2022/02/08 15:35:03;;;;;;;3.85;0.70;;;8.30;80.10;;;;;;5054958;28;20033;-83
2022/02/08 15:37:31;;;;;;;1.30;0.40;;;8.00;80.80;;;;;;5053391;28;20052;-80
2022/02/08 15:40:03;;;;;;;1.20;0.65;;;7.70;82.30;;;;;;5052238;28;20087;-83
2022/02/08 15:42:33;;;;;;;0.77;0.40;;;7.40;84.80;;;;;;5052707;28;20487;-79
2022/02/08 15:45:12;;;;;;;5.60;0.75;;;7.00;86.30;;;;;;5034823;28;20485;-79
2022/02/08 15:47:37;;;;;;;4.32;2.13;;;6.70;87.00;;;;;;5052197;28;20028;-78
2022/02/08 15:50:10;;;;;;;4.55;1.60;;;6.50;87.70;;;;;;5052744;28;20027;-80
2022/02/08 15:53:07;;;;;;;0.88;0.82;;;6.30;86.20;;;;;;5035110;28;20056;-79
2022/02/08 15:58:19;;;;;;;3.88;0.90;;;6.00;90.00;;;;;;5052855;28;20044;-80
2022/02/08 16:08:32;;;;;;;3.33;0.55;;;5.10;93.50;;;;;;5052888;28;20029;-79
2022/02/08 16:11:19;;;;;;;0.82;0.52;;;4.90;94.20;;;;;;5052794;28;20136;-79
2022/02/08 16:13:55;;;;;;;;;;;4.70;94.80;;;;;;5053301;28;20071;-80
2022/02/08 16:16:44;;;;;;;5.70;0.75;;;4.50;95.50;;;;;;5034753;28;19912;-79
2022/02/08 16:24:32;;;;;;;2.53;2.33;;;4.10;96.90;;;;;;5058426;28;20013;-78
2022/02/08 16:30:02;;;;;;;3.33;2.00;;;3.80;99.20;;;;;;5053621;28;20024;-79
2022/02/08 16:54:22;;;;;;;0.68;0.60;;;3.10;99.90;;;;;;5054831;28;20025;-76
2022/02/08 16:57:01;;;;;;;1.07;0.60;;;3.00;99.90;;;;;;5057318;28;20120;-79
2022/02/08 17:01:53;;;;;;;2.45;0.55;;;2.80;99.90;;;;;;5056418;28;20155;-77
2022/02/08 17:04:18;;;;;;;1.35;0.40;;;2.80;99.90;;;;;;5039631;28;20024;-85
2022/02/08 17:06:44;;;;;;;2.45;0.95;;;2.70;99.90;;;;;;5057987;28;20033;-81
2022/02/08 17:09:15;;;;;;;1.58;1.00;;;2.70;99.90;;;;;;5057709;28;20104;-82
2022/02/08 17:11:46;;;;;;;3.33;1.45;;;2.60;99.90;;;;;;5056080;28;20024;-78
2022/02/08 17:34:29;;;;;;;4.15;2.70;;;2.60;99.90;;;;;;5059354;28;20449;-83
2022/02/08 17:47:40;;;;;;;3.08;2.53;;;2.40;99.90;;;;;;5056833;28;20044;-79
2022/02/08 17:49:39;;;;;;;7.30;3.40;;;2.40;99.90;;;;;;5042162;28;20029;-80
2022/02/08 17:52:06;;;;;;;13.23;10.73;;;2.30;99.90;;;;;;5038474;28;20025;-80
2022/02/08 17:54:31;;;;;;;11.15;9.43;;;2.30;99.90;;;;;;5055799;28;20021;-79
2022/02/08 17:56:57;;;;;;;19.73;9.70;;;2.20;99.90;;;;;;5054815;28;20098;-81
2022/02/08 17:59:26;;;;;;;21.13;10.50;;;2.20;99.90;;;;;;5037899;28;20045;-79
2022/02/08 18:01:54;;;;;;;15.50;8.27;;;2.20;99.90;;;;;;5056158;28;20100;-80
2022/02/08 18:04:21;;;;;;;24.80;12.07;;;2.20;99.90;;;;;;5055954;28;20131;-80
2022/02/08 18:06:47;;;;;;;32.10;15.20;;;2.10;99.90;;;;;;5054741;28;20735;-80
2022/02/08 18:09:14;;;;;;;10.68;5.30;;;2.10;99.90;;;;;;5055984;28;20054;-80
2022/02/08 18:11:42;;;;;;;16.17;5.93;;;2.10;99.90;;;;;;5054616;28;20024;-81
2022/02/08 18:14:11;;;;;;;13.68;6.93;;;2.10;99.90;;;;;;5038352;28;20035;-79
2022/02/08 18:16:37;;;;;;;18.23;7.57;;;2.10;99.90;;;;;;5038001;28;20079;-84
2022/02/08 18:19:15;;;;;;;20.05;7.18;;;2.10;99.90;;;;;;5037871;28;20043;-80
2022/02/08 18:21:57;;;;;;;16.50;7.45;;;2.00;99.90;;;;;;5037871;28;20025;-79
2022/02/08 18:57:33;;;;;;;32.28;16.50;;;1.50;99.90;;;;;;5053554;28;20029;-79
2022/02/08 19:23:51;;;;;;;12.95;8.52;;;1.30;99.90;;;;;;5053407;28;20113;-78
2022/02/08 19:26:17;;;;;;;12.27;6.72;;;1.20;99.90;;;;;;5034928;28;20025;-79
2022/02/08 19:28:44;;;;;;;14.13;7.20;;;1.20;99.90;;;;;;5035559;28;20575;-78
2022/02/08 19:31:10;;;;;;;11.10;5.80;;;1.10;99.90;;;;;;5035229;28;20078;-79
2022/02/08 19:33:36;;;;;;;17.02;6.15;;;1.10;99.90;;;;;;5035369;28;20107;-80
2022/02/08 19:36:02;;;;;;;12.20;6.68;;;1.10;99.90;;;;;;5035525;28;20033;-79
2022/02/08 19:38:29;;;;;;;12.38;5.32;;;1.10;99.90;;;;;;5035060;28;20024;-80
2022/02/08 19:40:55;;;;;;;11.55;4.68;;;1.10;99.90;;;;;;5034631;28;20037;-80
2022/02/08 19:43:21;;;;;;;12.68;5.82;;;1.10;99.90;;;;;;5035225;28;20415;-79
2022/02/08 19:45:47;;;;;;;12.98;5.93;;;1.10;99.90;;;;;;5034897;28;20423;-78
2022/02/08 19:48:14;;;;;;;17.52;6.55;;;1.00;99.90;;;;;;5052490;28;20020;-80
2022/02/08 19:50:42;;;;;;;14.55;7.57;;;0.90;99.90;;;;;;5052948;28;20021;-79
2022/02/08 19:53:09;;;;;;;9.57;5.72;;;0.90;99.90;;;;;;5035201;28;20052;-79
2022/02/08 19:58:08;;;;;;;80.75;25.83;;;0.90;99.90;;;;;;5052487;28;20147;-79
2022/02/08 20:00:35;;;;;;;20.98;7.22;;;0.90;99.90;;;;;;5035060;28;20135;-79
2022/02/08 20:03:04;;;;;;;13.88;7.40;;;0.90;99.90;;;;;;5052800;28;20020;-79
2022/02/08 20:05:31;;;;;;;15.95;7.85;;;0.80;99.90;;;;;;5034481;28;20074;-80
2022/02/08 20:07:59;;;;;;;136.45;50.80;;;0.90;99.90;;;;;;5052877;28;20029;-79
2022/02/08 20:10:26;;;;;;;52.72;23.42;;;0.80;99.90;;;;;;5033421;28;20025;-79
2022/02/08 20:15:51;;;;;;;16.58;8.00;;;0.80;99.90;;;;;;5301850;22;20079;-78
2022/02/08 20:18:18;;;;;;;259.27;82.90;;;0.70;99.90;;;;;;5071727;28;20497;-78
2022/02/08 20:20:44;;;;;;;123.65;47.15;;;0.70;99.90;;;;;;5071568;28;20024;-78
2022/02/08 20:23:10;;;;;;;24.92;13.18;;;0.70;99.90;;;;;;5071936;28;20501;-79
2022/02/08 20:25:44;;;;;;;14.45;8.35;;;0.60;99.90;;;;;;5053508;28;20422;-78
2022/02/08 20:28:15;;;;;;;17.33;9.40;;;0.60;99.90;;;;;;5052607;28;20017;-78
2022/02/08 20:30:41;;;;;;;17.65;10.23;;;0.60;99.90;;;;;;5051468;28;20017;-78
2022/02/08 20:33:07;;;;;;;19.75;8.55;;;0.50;99.90;;;;;;5052672;28;20036;-78
2022/02/08 20:35:33;;;;;;;32.70;12.75;;;0.40;99.90;;;;;;5052652;28;20051;-77
2022/02/08 20:37:59;;;;;;;17.98;8.70;;;0.50;99.90;;;;;;5051243;28;20025;-80
2022/02/08 20:40:25;;;;;;;18.27;7.13;;;0.50;99.90;;;;;;5051533;28;20025;-78
2022/02/08 20:42:55;;;;;;;19.73;7.35;;;0.40;99.90;;;;;;5051338;28;20167;-78
2022/02/08 20:45:21;;;;;;;27.48;12.23;;;0.40;99.90;;;;;;5051417;28;20108;-79
2022/02/08 20:47:47;;;;;;;51.85;19.08;;;0.40;99.90;;;;;;5051545;28;20114;-79
2022/02/08 20:50:17;;;;;;;14.70;7.18;;;0.40;99.90;;;;;;5051559;28;20021;-81
2022/02/08 20:52:56;;;;;;;19.00;6.93;;;0.30;99.90;;;;;;5051575;28;20414;-80
2022/02/08 20:55:25;;;;;;;22.05;10.07;;;0.30;99.90;;;;;;5051674;28;20475;-78
2022/02/08 20:58:01;;;;;;;18.73;7.60;;;0.30;99.90;;;;;;5051750;28;20477;-79